createdAt,value
2019-04-25T00:01:46.707Z,26.27
2019-04-25T00:04:17.390Z,25.30
2019-04-25T00:06:47.661Z,26.17
2019-04-25T00:09:21.855Z,23.13
2019-04-25T00:11:52.462Z,28.60
2019-04-25T00:14:23.612Z,34.80
2019-04-25T00:16:54.856Z,31.87
2019-04-25T00:19:25.138Z,26.97
2019-04-25T00:21:59.803Z,27.50
2019-04-25T00:24:42.917Z,26.17
2019-04-25T00:27:13.011Z,27.83
2019-04-25T00:29:44.530Z,26.47
2019-04-25T00:32:15.499Z,37.90
2019-04-25T00:34:47.428Z,29.63
2019-04-25T00:37:17.728Z,28.00
2019-04-25T00:39:47.983Z,26.47
2019-04-25T00:42:18.263Z,23.83
2019-04-25T00:44:48.522Z,27.00
2019-04-25T00:47:19.198Z,26.93
2019-04-25T00:49:50.034Z,27.77
2019-04-25T00:52:21.142Z,26.27
2019-04-25T00:54:53.433Z,27.93
2019-04-25T00:57:24.489Z,27.97
2019-04-25T00:59:56.386Z,30.43
2019-04-25T01:02:28.315Z,28.43
2019-04-25T01:04:58.571Z,31.90
2019-04-25T01:07:28.872Z,27.90
2019-04-25T01:09:59.167Z,28.93
2019-04-25T01:12:31.304Z,27.83
2019-04-25T01:15:01.805Z,30.77
2019-04-25T01:17:32.438Z,28.77
2019-04-25T01:20:04.183Z,29.97
2019-04-25T01:22:34.530Z,26.93
2019-04-25T01:25:09.089Z,28.83
2019-04-25T01:27:39.353Z,27.13
2019-04-25T01:30:09.751Z,31.57
2019-04-25T01:32:40.032Z,32.10
2019-04-25T01:35:14.952Z,23.73
2019-04-25T01:37:47.485Z,28.37
2019-04-25T01:40:35.535Z,29.43
2019-04-25T01:43:23.554Z,31.30
2019-04-25T01:45:56.033Z,35.97
2019-04-25T01:48:26.372Z,30.13
2019-04-25T01:50:56.671Z,29.53
2019-04-25T01:53:26.934Z,24.13
2019-04-25T01:56:02.729Z,30.40
2019-04-25T01:58:29.203Z,31.40
2019-04-25T02:00:59.506Z,26.20
2019-04-25T02:03:30.162Z,25.00
2019-04-25T02:06:01.115Z,30.60
2019-04-25T02:08:31.419Z,26.03
2019-04-25T02:11:09.064Z,33.83
2019-04-25T02:13:39.354Z,28.77
2019-04-25T02:16:10.088Z,30.43
2019-04-25T02:18:40.399Z,25.03
2019-04-25T02:21:10.936Z,24.70
2019-04-25T02:23:41.226Z,31.00
2019-04-25T02:26:15.920Z,27.27
2019-04-25T02:28:44.089Z,28.90
2019-04-25T02:31:17.994Z,28.27
2019-04-25T02:33:46.670Z,27.83
2019-04-25T02:36:16.905Z,31.63
2019-04-25T02:38:47.177Z,25.67
2019-04-25T02:41:17.483Z,31.13
2019-04-25T02:43:47.751Z,27.33
2019-04-25T02:46:26.707Z,36.77
2019-04-25T02:49:06.890Z,28.47
2019-04-25T02:51:39.276Z,37.20
2019-04-25T02:54:09.572Z,30.87
2019-04-25T02:56:39.862Z,35.77
2019-04-25T02:59:10.131Z,35.37
2019-04-25T03:01:40.401Z,31.77
2019-04-25T03:04:11.387Z,31.00
2019-04-25T03:06:44.885Z,28.50
2019-04-25T03:09:15.502Z,38.83
2019-04-25T03:11:47.736Z,30.73
2019-04-25T03:14:18.157Z,30.70
2019-04-25T03:16:48.431Z,34.73
2019-04-25T03:19:35.257Z,35.60
2019-04-25T03:22:16.064Z,36.73
2019-04-25T03:24:46.348Z,28.30
2019-04-25T03:27:16.621Z,36.10
2019-04-25T03:29:46.918Z,38.57
2019-04-25T03:32:19.821Z,37.20
2019-04-25T03:34:50.139Z,32.47
2019-04-25T03:37:20.442Z,33.53
2019-04-25T03:39:51.060Z,32.63
2019-04-25T03:42:21.332Z,31.33
2019-04-25T03:44:53.807Z,33.53
2019-04-25T03:47:24.355Z,32.83
2019-04-25T03:49:55.440Z,25.90
2019-04-25T03:52:25.773Z,27.90
2019-04-25T03:54:56.845Z,23.17
2019-04-25T03:57:27.302Z,31.87
2019-04-25T03:59:59.305Z,25.13
2019-04-25T04:02:30.349Z,21.10
2019-04-25T04:05:00.635Z,25.80
2019-04-25T04:07:30.963Z,26.90
2019-04-25T04:10:01.225Z,24.80
2019-04-25T04:12:31.695Z,18.20
2019-04-25T04:15:03.787Z,25.70
2019-04-25T04:17:35.887Z,18.90
2019-04-25T04:20:07.378Z,17.60
2019-04-25T04:22:55.032Z,18.87
2019-04-25T04:25:25.764Z,21.90
2019-04-25T04:27:56.127Z,18.83
2019-04-25T04:30:26.384Z,15.27
2019-04-25T04:32:56.945Z,14.43
2019-04-25T04:35:27.210Z,15.53
2019-04-25T04:37:57.569Z,17.73
2019-04-25T04:40:27.853Z,14.00
2019-04-25T04:42:58.140Z,14.43
2019-04-25T04:45:28.401Z,11.00
2019-04-25T04:47:58.753Z,11.20
2019-04-25T04:50:29.038Z,12.83
2019-04-25T04:52:59.292Z,12.17
2019-04-25T04:55:29.560Z,16.57
2019-04-25T04:58:01.417Z,13.30
2019-04-25T05:00:31.786Z,15.57
2019-04-25T05:03:06.327Z,15.27
2019-04-25T05:05:38.270Z,16.93
2019-04-25T05:08:18.807Z,17.10
2019-04-25T05:10:49.063Z,13.30
2019-04-25T05:13:19.790Z,12.80
2019-04-25T05:15:50.223Z,20.87
2019-04-25T05:18:31.588Z,12.10
2019-04-25T05:20:54.128Z,12.47
2019-04-25T05:23:24.920Z,13.50
2019-04-25T05:25:55.771Z,10.53
2019-04-25T05:28:26.098Z,14.30
2019-04-25T05:30:58.035Z,9.87
2019-04-25T05:33:28.445Z,14.03
2019-04-25T05:35:58.726Z,12.77
2019-04-25T05:38:29.007Z,11.53
2019-04-25T05:41:06.619Z,11.73
2019-04-25T05:43:38.549Z,8.80
2019-04-25T05:46:08.831Z,10.53
2019-04-25T05:48:39.125Z,17.87
2019-04-25T05:51:11.087Z,14.87
2019-04-25T05:53:41.344Z,10.27
2019-04-25T05:56:11.665Z,10.73
2019-04-25T05:58:43.851Z,13.63
2019-04-25T06:01:13.933Z,10.07
2019-04-25T06:03:44.187Z,13.63
2019-04-25T06:06:14.499Z,16.90
2019-04-25T06:08:46.383Z,14.77
2019-04-25T06:11:27.961Z,12.63
2019-04-25T06:14:00.355Z,11.60
2019-04-25T06:16:33.356Z,11.70
2019-04-25T06:19:13.593Z,9.97
2019-04-25T06:21:37.382Z,5.47
2019-04-25T06:24:21.148Z,6.63
2019-04-25T06:27:03.830Z,5.73
2019-04-25T06:29:34.784Z,5.50
2019-04-25T06:32:08.388Z,5.53
2019-04-25T06:34:37.214Z,7.67
2019-04-25T06:37:07.494Z,7.03
2019-04-25T06:39:37.750Z,4.47
2019-04-25T06:42:08.041Z,8.17
2019-04-25T06:44:49.136Z,4.67
2019-04-25T06:47:27.058Z,6.27
2019-04-25T06:49:57.344Z,2.43
2019-04-25T06:52:30.005Z,6.77
2019-04-25T06:54:59.550Z,2.77
2019-04-25T06:57:30.451Z,2.20
2019-04-25T07:00:00.776Z,7.77
2019-04-25T07:02:31.058Z,3.43
2019-04-25T07:05:01.347Z,3.20
2019-04-25T07:07:31.780Z,3.07
2019-04-25T07:10:03.611Z,4.63
2019-04-25T07:12:35.747Z,4.30
2019-04-25T07:15:10.380Z,3.20
2019-04-25T07:17:40.632Z,3.17
2019-04-25T07:20:13.898Z,2.50
2019-04-25T07:22:44.242Z,4.67
2019-04-25T07:25:16.153Z,6.13
2019-04-25T07:28:00.286Z,6.70
2019-04-25T07:30:50.067Z,2.27
2019-04-25T07:33:29.767Z,2.03
2019-04-25T07:36:00.051Z,4.33
2019-04-25T07:38:31.059Z,1.37
2019-04-25T07:41:03.384Z,3.20
2019-04-25T07:43:34.144Z,4.67
2019-04-25T07:46:05.793Z,4.13
2019-04-25T07:48:37.161Z,4.03
2019-04-25T07:51:07.983Z,4.47
2019-04-25T07:53:38.280Z,3.17
2019-04-25T07:56:08.534Z,3.63
2019-04-25T07:58:50.333Z,3.73
2019-04-25T08:01:14.992Z,1.70
2019-04-25T08:03:45.647Z,3.03
2019-04-25T08:06:15.911Z,2.30
2019-04-25T08:08:46.173Z,1.90
2019-04-25T08:11:16.465Z,2.27
2019-04-25T08:13:47.487Z,1.43
2019-04-25T08:16:19.447Z,1.83
2019-04-25T08:18:49.841Z,1.63
2019-04-25T08:21:20.162Z,1.90
2019-04-25T08:23:51.294Z,1.57
2019-04-25T08:26:21.589Z,1.40
2019-04-25T08:28:55.708Z,5.50
2019-04-25T08:31:23.856Z,2.43
2019-04-25T08:33:54.108Z,4.53
2019-04-25T08:36:24.382Z,4.33
2019-04-25T08:38:54.947Z,2.37
2019-04-25T08:41:25.227Z,4.33
2019-04-25T08:43:55.582Z,6.93
2019-04-25T08:46:25.837Z,1.10
2019-04-25T08:49:06.130Z,1.60
2019-04-25T08:51:40.319Z,1.00
2019-04-25T08:54:24.102Z,4.30
2019-04-25T08:56:57.163Z,5.03
2019-04-25T08:59:49.423Z,1.67
2019-04-25T09:02:34.931Z,1.60
2019-04-25T09:05:20.455Z,5.50
2019-04-25T09:07:50.885Z,0.80
2019-04-25T09:10:21.315Z,7.83
2019-04-25T09:12:51.642Z,0.90
2019-04-25T09:15:21.898Z,1.70
2019-04-25T09:17:54.288Z,4.57
2019-04-25T09:20:24.301Z,1.50
2019-04-25T09:22:55.669Z,0.90
2019-04-25T09:25:26.083Z,4.97
2019-04-25T09:27:56.338Z,1.70
2019-04-25T09:30:26.596Z,2.43
2019-04-25T09:32:57.080Z,1.20
2019-04-25T09:35:29.207Z,3.20
2019-04-25T09:37:59.920Z,1.77
2019-04-25T09:40:30.304Z,3.33
2019-04-25T09:43:01.013Z,1.63
2019-04-25T09:45:46.067Z,0.77
2019-04-25T09:48:28.219Z,1.47
2019-04-25T09:51:00.106Z,2.00
2019-04-25T09:53:30.393Z,2.00
2019-04-25T09:56:04.966Z,1.80
2019-04-25T09:58:40.078Z,0.77
2019-04-25T10:01:15.909Z,3.93
2019-04-25T10:03:46.270Z,1.90
2019-04-25T10:06:17.250Z,1.03
2019-04-25T10:08:47.550Z,1.03
2019-04-25T10:11:17.932Z,4.70
2019-04-25T10:13:58.671Z,1.80
2019-04-25T10:16:28.956Z,1.80
2019-04-25T10:18:59.465Z,2.50
2019-04-25T10:21:29.752Z,0.70
2019-04-25T10:24:00.002Z,2.00
2019-04-25T10:26:30.363Z,2.20
2019-04-25T10:29:00.629Z,2.43
2019-04-25T10:31:30.904Z,1.50
2019-04-25T10:34:03.715Z,1.30
2019-04-25T10:36:34.235Z,4.13
2019-04-25T10:39:11.000Z,3.07
2019-04-25T10:41:41.656Z,13.23
2019-04-25T10:44:11.922Z,4.87
2019-04-25T10:46:42.461Z,1.87
2019-04-25T10:49:14.489Z,15.87
2019-04-25T10:51:45.789Z,38.13
2019-04-25T10:54:16.226Z,7.47
2019-04-25T10:56:48.115Z,6.17
2019-04-25T10:59:18.463Z,4.73
2019-04-25T11:01:48.963Z,3.43
2019-04-25T11:04:23.799Z,10.27
2019-04-25T11:06:55.149Z,37.93
2019-04-25T11:09:27.531Z,4.13
2019-04-25T11:11:57.837Z,9.57
2019-04-25T11:14:28.079Z,5.87
2019-04-25T11:17:00.110Z,4.93
2019-04-25T11:19:31.028Z,5.60
2019-04-25T11:22:01.774Z,8.40
2019-04-25T11:24:32.064Z,19.03
2019-04-25T11:27:02.349Z,6.23
2019-04-25T11:29:34.193Z,12.03
2019-04-25T11:32:05.660Z,1.10
2019-04-25T11:34:35.953Z,15.53
2019-04-25T11:37:06.229Z,5.47
2019-04-25T11:39:38.157Z,6.53
2019-04-25T11:42:09.707Z,3.03
2019-04-25T11:44:39.998Z,4.47
2019-04-25T11:47:11.169Z,8.47
2019-04-25T11:49:42.090Z,5.33
2019-04-25T11:52:21.432Z,2.63
2019-04-25T11:54:46.853Z,4.27
2019-04-25T11:57:19.535Z,3.57
2019-04-25T11:59:50.736Z,3.30
2019-04-25T12:02:23.960Z,2.27
2019-04-25T12:04:55.244Z,11.20
2019-04-25T12:07:26.962Z,2.13
2019-04-25T12:09:57.309Z,3.27
2019-04-25T12:12:27.672Z,4.27
2019-04-25T12:14:57.916Z,1.40
2019-04-25T12:17:28.594Z,1.87
2019-04-25T12:19:58.852Z,1.53
2019-04-25T12:22:29.151Z,2.13
2019-04-25T12:24:59.400Z,1.93
2019-04-25T12:27:29.654Z,2.57
2019-04-25T12:29:59.920Z,11.93
2019-04-25T12:32:30.210Z,4.03
2019-04-25T12:35:00.724Z,1.87
2019-04-25T12:37:31.176Z,1.70
2019-04-25T12:40:04.053Z,3.60
2019-04-25T12:42:34.365Z,6.30
2019-04-25T12:45:07.574Z,4.90
2019-04-25T12:47:39.508Z,9.00
2019-04-25T12:50:10.243Z,3.53
2019-04-25T12:52:40.548Z,4.20
2019-04-25T12:55:13.951Z,2.70
2019-04-25T12:57:44.357Z,1.83
2019-04-25T13:00:16.243Z,3.47
2019-04-25T13:02:46.505Z,2.10
2019-04-25T13:05:15.949Z,1.77
2019-04-25T13:07:46.040Z,2.17
2019-04-25T13:10:16.281Z,3.47
2019-04-25T13:12:47.020Z,1.40
2019-04-25T13:15:17.718Z,8.90
2019-04-25T13:17:48.499Z,2.10
2019-04-25T13:20:18.769Z,1.97
2019-04-25T13:22:49.048Z,4.60
2019-04-25T13:25:20.947Z,4.63
2019-04-25T13:27:55.557Z,2.87
2019-04-25T13:30:39.574Z,5.33
2019-04-25T13:33:17.312Z,2.10
2019-04-25T13:36:02.068Z,3.07
2019-04-25T13:38:32.454Z,6.80
2019-04-25T13:41:02.731Z,2.67
2019-04-25T13:43:33.285Z,6.93
2019-04-25T13:46:03.606Z,4.17
2019-04-25T13:48:34.710Z,5.73
2019-04-25T13:51:05.988Z,3.67
2019-04-25T13:53:37.102Z,1.60
2019-04-25T13:56:07.588Z,2.10
2019-04-25T13:58:37.834Z,0.40
2019-04-25T14:01:13.268Z,2.10
2019-04-25T14:03:41.708Z,1.40
2019-04-25T14:06:13.578Z,2.93
2019-04-25T14:08:43.948Z,2.50
2019-04-25T14:11:14.295Z,7.17
2019-04-25T14:13:44.583Z,2.08
2019-04-25T14:16:16.641Z,0.82
2019-04-25T14:19:00.893Z,2.45
2019-04-25T14:21:31.650Z,2.85
2019-04-25T14:24:03.142Z,1.02
2019-04-25T14:26:33.506Z,5.87
2019-04-25T14:29:04.272Z,1.92
2019-04-25T14:31:44.857Z,2.92
2019-04-25T14:34:07.023Z,3.77
2019-04-25T14:36:37.306Z,1.22
2019-04-25T14:39:08.098Z,3.60
2019-04-25T14:41:38.454Z,2.17
2019-04-25T14:44:08.714Z,1.35
2019-04-25T14:46:39.322Z,3.83
2019-04-25T14:49:09.876Z,1.47
2019-04-25T14:51:40.360Z,7.12
2019-04-25T14:54:12.812Z,4.45
2019-04-25T14:56:44.727Z,1.45
2019-04-25T14:59:14.981Z,3.10
2019-04-25T15:01:46.344Z,3.65
2019-04-25T15:04:16.617Z,2.10
2019-04-25T15:06:46.916Z,2.00
2019-04-25T15:09:17.701Z,1.42
2019-04-25T15:11:47.993Z,1.32
2019-04-25T15:14:18.727Z,3.08
2019-04-25T15:16:49.090Z,3.08
2019-04-25T15:19:19.373Z,4.08
2019-04-25T15:21:50.209Z,4.62
2019-04-25T15:24:20.509Z,2.92
2019-04-25T15:26:50.765Z,2.72
2019-04-25T15:29:21.019Z,4.87
2019-04-25T15:31:56.166Z,4.03
2019-04-25T15:34:25.967Z,4.03
2019-04-25T15:37:04.915Z,5.17
2019-04-25T15:39:42.967Z,3.65
2019-04-25T15:42:31.937Z,4.08
2019-04-25T15:45:06.715Z,2.42
2019-04-25T15:47:37.072Z,2.60
2019-04-25T15:50:07.595Z,2.52
2019-04-25T15:52:37.893Z,8.45
2019-04-25T15:55:08.843Z,5.12
2019-04-25T15:57:42.330Z,3.62
2019-04-25T16:00:14.237Z,1.47
2019-04-25T16:02:44.494Z,3.77
2019-04-25T16:05:14.750Z,1.72
2019-04-25T16:07:45.035Z,4.53
2019-04-25T16:10:15.323Z,1.75
2019-04-25T16:12:45.678Z,3.22
2019-04-25T16:15:15.970Z,2.40
2019-04-25T16:17:46.318Z,0.50
2019-04-25T16:20:16.587Z,0.82
2019-04-25T16:22:46.836Z,2.15
2019-04-25T16:25:17.214Z,2.40
2019-04-25T16:27:47.475Z,2.37
2019-04-25T16:30:19.406Z,3.47
2019-04-25T16:32:49.695Z,6.20
2019-04-25T16:35:20.327Z,3.65
2019-04-25T16:37:50.617Z,3.92
2019-04-25T16:40:21.104Z,6.05
2019-04-25T16:42:51.456Z,3.47
2019-04-25T16:45:21.733Z,0.75
2019-04-25T16:47:51.983Z,1.60
2019-04-25T16:50:23.014Z,3.33
2019-04-25T16:52:53.264Z,4.17
2019-04-25T16:55:23.635Z,4.60
2019-04-25T16:57:53.879Z,4.12
2019-04-25T17:00:28.216Z,3.10
2019-04-25T17:02:58.460Z,1.87
2019-04-25T17:05:30.832Z,5.83
2019-04-25T17:08:01.446Z,4.50
2019-04-25T17:10:32.722Z,3.83
2019-04-25T17:13:03.152Z,5.15
2019-04-25T17:15:38.411Z,5.22
2019-04-25T17:18:22.187Z,7.30
2019-04-25T17:20:57.065Z,7.10
2019-04-25T17:23:27.317Z,6.37
2019-04-25T17:25:57.598Z,6.50
2019-04-25T17:28:30.315Z,5.73
2019-04-25T17:31:03.331Z,5.20
2019-04-25T17:33:33.864Z,6.57
2019-04-25T17:36:05.747Z,5.70
2019-04-25T17:38:40.384Z,7.00
2019-04-25T17:41:10.772Z,5.60
2019-04-25T17:43:41.847Z,4.87
2019-04-25T17:46:13.885Z,6.10
2019-04-25T17:48:45.517Z,7.80
2019-04-25T17:51:15.787Z,3.33
2019-04-25T17:53:46.048Z,4.20
2019-04-25T17:56:17.075Z,9.47
2019-04-25T17:58:47.351Z,7.13
2019-04-25T18:01:19.294Z,9.13
2019-04-25T18:03:49.565Z,5.33
2019-04-25T18:06:19.824Z,7.67
2019-04-25T18:08:50.114Z,10.20
2019-04-25T18:11:20.430Z,3.93
2019-04-25T18:13:50.667Z,8.40
2019-04-25T18:16:22.582Z,10.33
2019-04-25T18:18:57.246Z,8.57
2019-04-25T18:21:27.503Z,8.57
2019-04-25T18:24:15.811Z,8.60
2019-04-25T18:26:51.406Z,8.00
2019-04-25T18:29:23.318Z,9.47
2019-04-25T18:31:53.606Z,5.70
2019-04-25T18:34:34.934Z,6.00
2019-04-25T18:37:18.952Z,11.17
2019-04-25T18:39:53.319Z,6.83
2019-04-25T18:42:25.243Z,6.57
2019-04-25T18:44:55.501Z,10.33
2019-04-25T18:47:26.339Z,4.43
2019-04-25T18:49:56.592Z,3.03
2019-04-25T18:52:28.485Z,7.17
2019-04-25T18:55:00.447Z,8.57
2019-04-25T18:57:32.414Z,6.47
2019-04-25T19:00:04.298Z,12.77
2019-04-25T19:02:46.016Z,9.90
2019-04-25T19:05:18.048Z,8.57
2019-04-25T19:07:48.329Z,6.27
2019-04-25T19:10:19.085Z,6.47
2019-04-25T19:12:49.337Z,4.83
2019-04-25T19:15:19.716Z,5.70
2019-04-25T19:17:50.037Z,5.30
2019-04-25T19:20:20.328Z,8.77
2019-04-25T19:22:50.820Z,3.53
2019-04-25T19:25:21.081Z,4.63
2019-04-25T19:27:51.383Z,3.63
2019-04-25T19:30:21.699Z,2.07
2019-04-25T19:32:51.958Z,7.80
2019-04-25T19:35:22.207Z,2.50
2019-04-25T19:37:54.120Z,3.10
2019-04-25T19:40:42.583Z,4.10
2019-04-25T19:43:14.775Z,1.90
2019-04-25T19:45:45.059Z,3.13
2019-04-25T19:48:15.331Z,4.53
2019-04-25T19:50:46.388Z,3.40
2019-04-25T19:53:16.685Z,2.80
2019-04-25T19:55:47.592Z,2.87
2019-04-25T19:58:17.921Z,3.37
2019-04-25T20:00:50.970Z,3.50
2019-04-25T20:03:25.740Z,5.70
2019-04-25T20:06:03.672Z,9.13
2019-04-25T20:08:35.661Z,6.80
2019-04-25T20:11:16.563Z,4.40
2019-04-25T20:13:47.342Z,6.63
2019-04-25T20:16:17.753Z,6.20
2019-04-25T20:18:48.018Z,2.40
2019-04-25T20:21:18.287Z,6.63
2019-04-25T20:23:48.572Z,0.90
2019-04-25T20:26:18.875Z,6.00
2019-04-25T20:28:49.121Z,5.47
2019-04-25T20:31:19.395Z,2.40
2019-04-25T20:34:02.318Z,6.63
2019-04-25T20:36:22.056Z,4.10
2019-04-25T20:38:53.290Z,4.83
2019-04-25T20:41:23.691Z,1.93
2019-04-25T20:43:54.927Z,5.03
2019-04-25T20:46:25.408Z,6.90
2019-04-25T20:48:56.501Z,1.10
2019-04-25T20:51:26.797Z,3.87
2019-04-25T20:53:57.159Z,2.83
2019-04-25T20:56:27.509Z,3.67
2019-04-25T20:58:57.868Z,3.80
2019-04-25T21:01:28.152Z,3.47
2019-04-25T21:03:58.455Z,1.10
2019-04-25T21:06:30.440Z,0.70
2019-04-25T21:09:00.781Z,3.07
2019-04-25T21:11:31.029Z,2.33
2019-04-25T21:14:01.387Z,1.27
2019-04-25T21:16:50.398Z,2.30
2019-04-25T21:19:35.759Z,2.20
2019-04-25T21:22:06.066Z,1.60
2019-04-25T21:24:36.420Z,3.83
2019-04-25T21:27:06.670Z,2.73
2019-04-25T21:29:37.031Z,2.03
2019-04-25T21:32:07.286Z,2.43
2019-04-25T21:34:37.570Z,0.80
2019-04-25T21:37:09.777Z,1.33
2019-04-25T21:39:43.679Z,2.80
2019-04-25T21:42:15.791Z,1.40
2019-04-25T21:44:46.410Z,1.90
2019-04-25T21:47:17.033Z,1.13
2019-04-25T21:49:48.492Z,4.97
2019-04-25T21:52:19.372Z,1.60
2019-04-25T21:54:49.920Z,1.20
2019-04-25T21:57:20.274Z,2.77
2019-04-25T22:00:00.388Z,1.90
2019-04-25T22:02:23.759Z,3.87
2019-04-25T22:04:55.325Z,1.73
2019-04-25T22:07:26.411Z,3.27
2019-04-25T22:09:57.026Z,3.53
2019-04-25T22:12:28.662Z,3.77
2019-04-25T22:14:59.275Z,2.27
2019-04-25T22:17:29.669Z,6.93
2019-04-25T22:20:00.353Z,3.00
2019-04-25T22:22:30.921Z,5.07
2019-04-25T22:25:01.161Z,2.87
2019-04-25T22:27:33.062Z,2.40
2019-04-25T22:30:06.068Z,2.30
2019-04-25T22:32:41.110Z,2.80
2019-04-25T22:35:21.505Z,3.03
2019-04-25T22:37:51.787Z,2.30
2019-04-25T22:40:22.078Z,1.97
2019-04-25T22:42:52.584Z,2.87
2019-04-25T22:45:22.874Z,4.03
2019-04-25T22:47:53.327Z,2.50
2019-04-25T22:50:23.897Z,1.40
2019-04-25T22:52:54.176Z,1.60
2019-04-25T22:55:24.444Z,2.43
2019-04-25T22:57:54.706Z,3.00
2019-04-25T23:00:26.626Z,6.73
2019-04-25T23:02:58.893Z,4.00
2019-04-25T23:05:33.772Z,2.93
2019-04-25T23:08:04.427Z,3.27
2019-04-25T23:10:34.704Z,5.13
2019-04-25T23:13:04.940Z,2.80
2019-04-25T23:15:35.204Z,2.00
2019-04-25T23:18:05.668Z,2.80
2019-04-25T23:20:37.281Z,2.03
2019-04-25T23:23:07.759Z,3.17
2019-04-25T23:25:54.838Z,5.63
2019-04-25T23:28:27.019Z,3.53
2019-04-25T23:30:58.931Z,3.80
2019-04-25T23:33:29.248Z,2.57
2019-04-25T23:35:59.806Z,5.13
2019-04-25T23:38:30.048Z,5.70
2019-04-25T23:41:02.202Z,3.93
2019-04-25T23:43:32.480Z,4.93
2019-04-25T23:46:02.789Z,3.27
2019-04-25T23:48:33.449Z,5.47
2019-04-25T23:51:03.705Z,5.00
2019-04-25T23:53:33.951Z,5.27
2019-04-25T23:56:04.252Z,4.07
2019-04-25T23:58:34.522Z,6.17
